sensor_id;sensor_type;location;lat;lon;timestamp;pressure;altitude;pressure_sealevel;temperature;humidity
250;BME280;109;19.806;-70.704;2022-09-29T00:02:02;101162.47;;;26.86;64.04
250;BME280;109;19.806;-70.704;2022-09-29T00:04:29;101173.81;;;27.07;63.50
250;BME280;109;19.806;-70.704;2022-09-29T00:06:55;101164.22;;;27.03;63.87
250;BME280;109;19.806;-70.704;2022-09-29T00:09:22;101170.56;;;27.02;64.00
250;BME280;109;19.806;-70.704;2022-09-29T00:11:48;101173.56;;;27.12;64.02
250;BME280;109;19.806;-70.704;2022-09-29T00:14:14;101180.84;;;27.10;63.54
250;BME280;109;19.806;-70.704;2022-09-29T00:16:41;101178.53;;;27.04;63.76
250;BME280;109;19.806;-70.704;2022-09-29T00:19:07;101177.38;;;27.08;63.42
250;BME280;109;19.806;-70.704;2022-09-29T00:21:34;101185.00;;;27.15;63.54
250;BME280;109;19.806;-70.704;2022-09-29T00:24:01;101182.13;;;27.18;63.29
250;BME280;109;19.806;-70.704;2022-09-29T00:26:27;101184.38;;;27.26;63.27
250;BME280;109;19.806;-70.704;2022-09-29T00:28:55;101184.94;;;27.17;63.31
250;BME280;109;19.806;-70.704;2022-09-29T00:31:32;101195.06;;;27.12;63.42
250;BME280;109;19.806;-70.704;2022-09-29T00:33:59;101196.63;;;27.16;63.36
250;BME280;109;19.806;-70.704;2022-09-29T00:36:26;101199.81;;;27.07;62.63
250;BME280;109;19.806;-70.704;2022-09-29T00:38:56;101199.31;;;27.16;62.56
250;BME280;109;19.806;-70.704;2022-09-29T00:41:29;101195.06;;;27.12;62.69
250;BME280;109;19.806;-70.704;2022-09-29T00:46:49;101198.44;;;27.15;62.68
250;BME280;109;19.806;-70.704;2022-09-29T00:49:44;101201.13;;;27.15;62.92
250;BME280;109;19.806;-70.704;2022-09-29T00:52:30;101203.38;;;27.07;62.90
250;BME280;109;19.806;-70.704;2022-09-29T00:55:06;101205.91;;;27.10;63.05
250;BME280;109;19.806;-70.704;2022-09-29T00:57:47;101206.94;;;27.08;62.68
250;BME280;109;19.806;-70.704;2022-09-29T01:00:21;101207.53;;;26.97;62.34
250;BME280;109;19.806;-70.704;2022-09-29T01:02:53;101207.38;;;27.00;62.72
250;BME280;109;19.806;-70.704;2022-09-29T01:05:37;101211.09;;;26.98;62.46
250;BME280;109;19.806;-70.704;2022-09-29T01:08:30;101220.50;;;26.89;61.98
250;BME280;109;19.806;-70.704;2022-09-29T01:11:04;101222.41;;;26.87;62.27
250;BME280;109;19.806;-70.704;2022-09-29T01:13:32;101225.31;;;27.00;62.48
250;BME280;109;19.806;-70.704;2022-09-29T01:16:13;101224.78;;;26.93;62.19
250;BME280;109;19.806;-70.704;2022-09-29T01:18:54;101215.44;;;27.00;61.87
250;BME280;109;19.806;-70.704;2022-09-29T01:27:47;101225.56;;;27.11;60.99
250;BME280;109;19.806;-70.704;2022-09-29T01:33:51;101247.91;;;26.96;61.26
250;BME280;109;19.806;-70.704;2022-09-29T01:39:35;101237.78;;;27.01;60.65
250;BME280;109;19.806;-70.704;2022-09-29T01:42:50;101236.84;;;27.02;60.58
250;BME280;109;19.806;-70.704;2022-09-29T01:45:34;101254.16;;;26.96;60.32
250;BME280;109;19.806;-70.704;2022-09-29T01:48:24;101253.13;;;26.99;60.93
250;BME280;109;19.806;-70.704;2022-09-29T01:51:03;101255.97;;;26.96;60.92
250;BME280;109;19.806;-70.704;2022-09-29T01:53:50;101257.13;;;26.92;61.43
250;BME280;109;19.806;-70.704;2022-09-29T01:56:37;101260.56;;;26.94;61.61
250;BME280;109;19.806;-70.704;2022-09-29T01:59:23;101265.34;;;26.71;62.38
250;BME280;109;19.806;-70.704;2022-09-29T02:02:08;101267.75;;;26.60;62.42
250;BME280;109;19.806;-70.704;2022-09-29T02:04:53;101258.59;;;26.64;62.89
250;BME280;109;19.806;-70.704;2022-09-29T02:07:41;101260.41;;;26.64;62.67
250;BME280;109;19.806;-70.704;2022-09-29T02:10:28;101263.00;;;26.65;62.27
250;BME280;109;19.806;-70.704;2022-09-29T02:13:10;101262.75;;;26.70;62.61
250;BME280;109;19.806;-70.704;2022-09-29T02:15:50;101260.41;;;26.79;62.47
250;BME280;109;19.806;-70.704;2022-09-29T02:18:53;101267.41;;;26.66;61.49
250;BME280;109;19.806;-70.704;2022-09-29T02:21:27;101267.09;;;26.72;61.92
250;BME280;109;19.806;-70.704;2022-09-29T02:24:07;101266.13;;;26.73;61.79
250;BME280;109;19.806;-70.704;2022-09-29T02:26:34;101268.09;;;26.70;61.58
250;BME280;109;19.806;-70.704;2022-09-29T02:29:14;101262.81;;;26.68;61.41
250;BME280;109;19.806;-70.704;2022-09-29T02:31:41;101264.41;;;26.72;61.00
250;BME280;109;19.806;-70.704;2022-09-29T02:34:31;101261.03;;;26.84;61.37
250;BME280;109;19.806;-70.704;2022-09-29T02:51:46;101251.75;;;26.74;60.79
250;BME280;109;19.806;-70.704;2022-09-29T02:57:44;101240.16;;;26.74;60.73
250;BME280;109;19.806;-70.704;2022-09-29T03:00:20;101254.59;;;26.71;60.97
250;BME280;109;19.806;-70.704;2022-09-29T03:03:00;101253.47;;;26.60;61.20
250;BME280;109;19.806;-70.704;2022-09-29T03:05:26;101257.28;;;26.71;60.63
250;BME280;109;19.806;-70.704;2022-09-29T03:08:06;101248.38;;;26.71;60.72
250;BME280;109;19.806;-70.704;2022-09-29T03:10:32;101251.56;;;26.62;60.45
250;BME280;109;19.806;-70.704;2022-09-29T03:13:12;101245.75;;;26.69;60.35
250;BME280;109;19.806;-70.704;2022-09-29T03:15:38;101245.69;;;26.71;60.63
250;BME280;109;19.806;-70.704;2022-09-29T03:18:25;101252.44;;;26.62;59.95
250;BME280;109;19.806;-70.704;2022-09-29T03:20:59;101243.75;;;26.57;60.21
250;BME280;109;19.806;-70.704;2022-09-29T03:23:39;101238.66;;;26.68;60.35
250;BME280;109;19.806;-70.704;2022-09-29T03:26:05;101235.72;;;26.73;60.25
250;BME280;109;19.806;-70.704;2022-09-29T03:28:45;101242.13;;;26.70;60.25
250;BME280;109;19.806;-70.704;2022-09-29T03:31:18;101239.28;;;26.73;60.34
250;BME280;109;19.806;-70.704;2022-09-29T03:33:58;101230.00;;;26.79;59.65
250;BME280;109;19.806;-70.704;2022-09-29T03:36:24;101230.19;;;26.76;59.47
250;BME280;109;19.806;-70.704;2022-09-29T03:39:04;101231.16;;;26.75;59.51
250;BME280;109;19.806;-70.704;2022-09-29T03:41:31;101224.63;;;26.79;59.92
250;BME280;109;19.806;-70.704;2022-09-29T03:44:10;101213.88;;;26.79;59.72
250;BME280;109;19.806;-70.704;2022-09-29T03:46:37;101211.31;;;26.77;59.49
250;BME280;109;19.806;-70.704;2022-09-29T03:49:18;101208.88;;;26.73;59.71
250;BME280;109;19.806;-70.704;2022-09-29T03:51:44;101203.44;;;26.74;59.34
250;BME280;109;19.806;-70.704;2022-09-29T03:54:24;101201.59;;;26.75;59.78
250;BME280;109;19.806;-70.704;2022-09-29T03:57:04;101200.66;;;26.76;59.61
250;BME280;109;19.806;-70.704;2022-09-29T03:59:30;101205.16;;;26.75;59.49
250;BME280;109;19.806;-70.704;2022-09-29T04:02:10;101201.16;;;26.67;59.19
250;BME280;109;19.806;-70.704;2022-09-29T04:04:43;101206.28;;;26.71;58.95
250;BME280;109;19.806;-70.704;2022-09-29T04:07:23;101213.69;;;26.66;59.53
250;BME280;109;19.806;-70.704;2022-09-29T04:09:49;101208.53;;;26.63;59.70
250;BME280;109;19.806;-70.704;2022-09-29T04:12:29;101206.00;;;26.60;59.68
250;BME280;109;19.806;-70.704;2022-09-29T04:14:55;101204.19;;;26.61;59.18
250;BME280;109;19.806;-70.704;2022-09-29T04:17:43;101202.28;;;26.63;59.12
250;BME280;109;19.806;-70.704;2022-09-29T04:20:22;101206.00;;;26.60;59.18
250;BME280;109;19.806;-70.704;2022-09-29T04:23:02;101196.91;;;26.63;59.18
250;BME280;109;19.806;-70.704;2022-09-29T04:25:29;101197.22;;;26.57;59.41
250;BME280;109;19.806;-70.704;2022-09-29T04:28:09;101201.72;;;26.56;59.08
250;BME280;109;19.806;-70.704;2022-09-29T04:30:36;101196.38;;;26.56;59.09
250;BME280;109;19.806;-70.704;2022-09-29T04:33:23;101198.63;;;26.48;59.49
250;BME280;109;19.806;-70.704;2022-09-29T04:35:57;101192.63;;;26.43;59.45
250;BME280;109;19.806;-70.704;2022-09-29T04:38:38;101195.28;;;26.43;59.51
250;BME280;109;19.806;-70.704;2022-09-29T04:41:04;101196.88;;;26.47;59.47
250;BME280;109;19.806;-70.704;2022-09-29T04:43:44;101190.97;;;26.40;59.44
250;BME280;109;19.806;-70.704;2022-09-29T04:46:11;101184.41;;;26.46;59.48
250;BME280;109;19.806;-70.704;2022-09-29T04:48:51;101179.91;;;26.46;59.26
250;BME280;109;19.806;-70.704;2022-09-29T04:51:17;101179.13;;;26.44;59.48
250;BME280;109;19.806;-70.704;2022-09-29T04:53:58;101169.78;;;26.52;59.16
250;BME280;109;19.806;-70.704;2022-09-29T04:56:25;101174.28;;;26.51;59.14
250;BME280;109;19.806;-70.704;2022-09-29T04:59:04;101167.28;;;26.48;59.28
250;BME280;109;19.806;-70.704;2022-09-29T05:01:31;101170.91;;;26.47;59.62
250;BME280;109;19.806;-70.704;2022-09-29T05:04:10;101164.16;;;26.56;59.17
250;BME280;109;19.806;-70.704;2022-09-29T05:06:38;101160.59;;;26.56;59.77
250;BME280;109;19.806;-70.704;2022-09-29T05:09:18;101163.38;;;26.54;59.26
250;BME280;109;19.806;-70.704;2022-09-29T05:11:44;101168.13;;;26.49;59.75
250;BME280;109;19.806;-70.704;2022-09-29T05:14:24;101162.94;;;26.46;59.46
250;BME280;109;19.806;-70.704;2022-09-29T05:16:53;101175.66;;;26.42;59.51
250;BME280;109;19.806;-70.704;2022-09-29T05:19:40;101174.63;;;26.45;60.04
250;BME280;109;19.806;-70.704;2022-09-29T05:22:19;101162.78;;;26.49;59.79
250;BME280;109;19.806;-70.704;2022-09-29T05:24:52;101155.59;;;26.49;59.51
250;BME280;109;19.806;-70.704;2022-09-29T05:27:34;101161.19;;;26.45;59.71
250;BME280;109;19.806;-70.704;2022-09-29T05:30:01;101161.69;;;26.36;60.18
250;BME280;109;19.806;-70.704;2022-09-29T05:32:49;101158.59;;;26.43;60.47
250;BME280;109;19.806;-70.704;2022-09-29T05:35:22;101160.41;;;26.43;60.23
250;BME280;109;19.806;-70.704;2022-09-29T05:38:02;101158.34;;;26.48;60.17
250;BME280;109;19.806;-70.704;2022-09-29T05:40:29;101161.81;;;26.50;60.40
250;BME280;109;19.806;-70.704;2022-09-29T05:43:08;101153.50;;;26.39;60.50
250;BME280;109;19.806;-70.704;2022-09-29T05:45:34;101145.44;;;26.39;60.35
250;BME280;109;19.806;-70.704;2022-09-29T05:48:14;101131.38;;;26.34;60.56
250;BME280;109;19.806;-70.704;2022-09-29T05:50:41;101142.56;;;26.42;60.34
250;BME280;109;19.806;-70.704;2022-09-29T05:53:20;101136.19;;;26.27;60.42
250;BME280;109;19.806;-70.704;2022-09-29T05:55:46;101135.34;;;26.27;60.97
250;BME280;109;19.806;-70.704;2022-09-29T05:58:26;101137.69;;;26.33;60.44
250;BME280;109;19.806;-70.704;2022-09-29T06:00:52;101134.03;;;26.34;60.96
250;BME280;109;19.806;-70.704;2022-09-29T06:03:34;101122.53;;;26.32;60.50
250;BME280;109;19.806;-70.704;2022-09-29T06:06:18;101131.59;;;26.29;60.35
250;BME280;109;19.806;-70.704;2022-09-29T06:08:58;101122.53;;;26.32;60.95
250;BME280;109;19.806;-70.704;2022-09-29T06:11:29;101121.22;;;26.23;60.47
250;BME280;109;19.806;-70.704;2022-09-29T06:14:09;101118.66;;;26.37;60.92
250;BME280;109;19.806;-70.704;2022-09-29T06:16:35;101116.28;;;26.31;60.44
250;BME280;109;19.806;-70.704;2022-09-29T06:19:23;101109.19;;;26.30;60.96
250;BME280;109;19.806;-70.704;2022-09-29T06:21:56;101100.97;;;26.33;60.33
250;BME280;109;19.806;-70.704;2022-09-29T06:24:36;101096.63;;;26.31;61.00
250;BME280;109;19.806;-70.704;2022-09-29T06:27:16;101101.94;;;26.32;60.85
250;BME280;109;19.806;-70.704;2022-09-29T06:29:42;101107.38;;;26.31;61.18
250;BME280;109;19.806;-70.704;2022-09-29T06:32:22;101112.50;;;26.35;60.83
250;BME280;109;19.806;-70.704;2022-09-29T06:34:48;101106.09;;;26.38;60.50
250;BME280;109;19.806;-70.704;2022-09-29T06:37:47;101102.63;;;26.36;61.00
250;BME280;109;19.806;-70.704;2022-09-29T06:40:14;101094.50;;;26.37;60.87
250;BME280;109;19.806;-70.704;2022-09-29T06:42:54;101099.31;;;26.31;60.27
250;BME280;109;19.806;-70.704;2022-09-29T06:45:21;101102.78;;;26.33;60.38
250;BME280;109;19.806;-70.704;2022-09-29T06:48:00;101098.22;;;26.35;60.39
250;BME280;109;19.806;-70.704;2022-09-29T06:50:28;101098.28;;;26.33;60.69
250;BME280;109;19.806;-70.704;2022-09-29T06:53:07;101090.41;;;26.30;60.72
250;BME280;109;19.806;-70.704;2022-09-29T06:55:34;101087.22;;;26.24;61.53
250;BME280;109;19.806;-70.704;2022-09-29T06:58:13;101086.16;;;26.10;61.47
250;BME280;109;19.806;-70.704;2022-09-29T07:00:40;101076.88;;;26.00;61.31
250;BME280;109;19.806;-70.704;2022-09-29T07:03:19;101062.81;;;25.95;61.48
250;BME280;109;19.806;-70.704;2022-09-29T07:05:46;101069.22;;;25.93;61.52
250;BME280;109;19.806;-70.704;2022-09-29T07:08:34;101053.69;;;25.82;61.56
250;BME280;109;19.806;-70.704;2022-09-29T07:11:10;101058.59;;;25.74;62.23
250;BME280;109;19.806;-70.704;2022-09-29T07:13:50;101064.69;;;25.60;61.92
250;BME280;109;19.806;-70.704;2022-09-29T07:16:17;101062.44;;;25.68;62.34
250;BME280;109;19.806;-70.704;2022-09-29T07:19:03;101051.88;;;25.65;62.61
250;BME280;109;19.806;-70.704;2022-09-29T07:21:36;101057.00;;;25.70;62.27
250;BME280;109;19.806;-70.704;2022-09-29T07:24:16;101059.94;;;25.65;62.12
250;BME280;109;19.806;-70.704;2022-09-29T07:26:43;101051.09;;;25.63;62.17
250;BME280;109;19.806;-70.704;2022-09-29T07:29:23;101039.44;;;25.64;62.23
250;BME280;109;19.806;-70.704;2022-09-29T07:32:04;101049.47;;;25.61;62.77
250;BME280;109;19.806;-70.704;2022-09-29T07:34:30;101047.72;;;25.60;62.84
250;BME280;109;19.806;-70.704;2022-09-29T07:37:10;101049.56;;;25.59;62.20
250;BME280;109;19.806;-70.704;2022-09-29T07:39:37;101049.06;;;25.51;62.55
250;BME280;109;19.806;-70.704;2022-09-29T07:42:17;101048.28;;;25.49;62.57
250;BME280;109;19.806;-70.704;2022-09-29T07:44:54;101041.28;;;25.47;62.43
250;BME280;109;19.806;-70.704;2022-09-29T07:47:33;101051.28;;;25.43;62.95
250;BME280;109;19.806;-70.704;2022-09-29T07:50:00;101050.41;;;25.42;63.00
250;BME280;109;19.806;-70.704;2022-09-29T07:52:39;101048.69;;;25.41;62.71
250;BME280;109;19.806;-70.704;2022-09-29T07:55:06;101040.72;;;25.40;62.88
250;BME280;109;19.806;-70.704;2022-09-29T07:57:47;101033.81;;;25.36;63.12
250;BME280;109;19.806;-70.704;2022-09-29T08:00:13;101033.97;;;25.33;62.80
250;BME280;109;19.806;-70.704;2022-09-29T08:02:53;101038.53;;;25.31;62.92
250;BME280;109;19.806;-70.704;2022-09-29T08:05:19;101034.03;;;25.31;62.96
250;BME280;109;19.806;-70.704;2022-09-29T08:08:07;101033.03;;;25.34;63.08
250;BME280;109;19.806;-70.704;2022-09-29T08:10:40;101030.94;;;25.39;62.74
250;BME280;109;19.806;-70.704;2022-09-29T08:13:20;101029.06;;;25.41;62.57
250;BME280;109;19.806;-70.704;2022-09-29T08:15:47;101024.66;;;25.40;62.70
250;BME280;109;19.806;-70.704;2022-09-29T08:18:34;101020.00;;;25.43;62.87
250;BME280;109;19.806;-70.704;2022-09-29T08:21:09;101020.00;;;25.43;62.93
250;BME280;109;19.806;-70.704;2022-09-29T08:23:48;101021.97;;;25.40;62.92
250;BME280;109;19.806;-70.704;2022-09-29T08:26:18;101027.41;;;25.38;62.93
250;BME280;109;19.806;-70.704;2022-09-29T08:29:03;101028.44;;;25.36;63.45
250;BME280;109;19.806;-70.704;2022-09-29T08:31:36;101025.94;;;25.33;63.31
250;BME280;109;19.806;-70.704;2022-09-29T08:34:16;101014.34;;;25.32;63.48
250;BME280;109;19.806;-70.704;2022-09-29T08:36:43;101017.09;;;25.31;63.31
250;BME280;109;19.806;-70.704;2022-09-29T08:39:23;101025.13;;;25.31;63.16
250;BME280;109;19.806;-70.704;2022-09-29T08:42:04;101024.91;;;25.35;63.47
250;BME280;109;19.806;-70.704;2022-09-29T08:44:59;101021.59;;;25.30;63.69
250;BME280;109;19.806;-70.704;2022-09-29T08:47:44;101018.91;;;25.30;63.23
250;BME280;109;19.806;-70.704;2022-09-29T08:50:41;101021.59;;;25.30;63.58
250;BME280;109;19.806;-70.704;2022-09-29T08:53:34;101020.66;;;25.31;63.62
250;BME280;109;19.806;-70.704;2022-09-29T08:56:14;101023.25;;;25.33;63.31
250;BME280;109;19.806;-70.704;2022-09-29T08:58:55;101017.75;;;25.36;63.48
250;BME280;109;19.806;-70.704;2022-09-29T09:13:41;101023.63;;;25.42;63.48
250;BME280;109;19.806;-70.704;2022-09-29T09:16:26;101016.53;;;25.41;63.00
250;BME280;109;19.806;-70.704;2022-09-29T09:22:57;101014.41;;;25.31;63.74
250;BME280;109;19.806;-70.704;2022-09-29T09:25:35;101016.28;;;25.29;63.48
250;BME280;109;19.806;-70.704;2022-09-29T09:28:35;101016.22;;;25.30;63.51
250;BME280;109;19.806;-70.704;2022-09-29T09:31:32;101021.78;;;25.26;63.30
250;BME280;109;19.806;-70.704;2022-09-29T09:34:52;101019.28;;;25.23;63.15
250;BME280;109;19.806;-70.704;2022-09-29T09:37:34;101019.50;;;25.18;63.37
250;BME280;109;19.806;-70.704;2022-09-29T09:43:04;101047.47;;;25.13;63.70
250;BME280;109;19.806;-70.704;2022-09-29T09:46:07;101046.59;;;25.12;63.92
250;BME280;109;19.806;-70.704;2022-09-29T09:54:46;101043.53;;;25.02;64.19
250;BME280;109;19.806;-70.704;2022-09-29T10:00:31;101043.59;;;25.01;63.91
250;BME280;109;19.806;-70.704;2022-09-29T10:03:12;101047.13;;;25.01;64.00
250;BME280;109;19.806;-70.704;2022-09-29T10:05:44;101047.13;;;25.01;64.30
250;BME280;109;19.806;-70.704;2022-09-29T10:11:01;101040.91;;;25.01;64.09
250;BME280;109;19.806;-70.704;2022-09-29T10:13:42;101032.66;;;25.05;63.99
250;BME280;109;19.806;-70.704;2022-09-29T10:19:53;101038.75;;;25.09;64.18
250;BME280;109;19.806;-70.704;2022-09-29T10:22:35;101043.38;;;25.05;64.37
250;BME280;109;19.806;-70.704;2022-09-29T10:25:17;101033.53;;;25.06;64.10
250;BME280;109;19.806;-70.704;2022-09-29T10:27:49;101032.72;;;25.04;64.10
250;BME280;109;19.806;-70.704;2022-09-29T10:30:34;101038.09;;;25.04;64.33
250;BME280;109;19.806;-70.704;2022-09-29T10:33:18;101021.88;;;25.07;64.46
250;BME280;109;19.806;-70.704;2022-09-29T10:36:08;101031.00;;;25.03;64.28
250;BME280;109;19.806;-70.704;2022-09-29T10:38:45;101032.97;;;24.99;64.50
250;BME280;109;19.806;-70.704;2022-09-29T10:41:25;101026.66;;;25.00;64.20
250;BME280;109;19.806;-70.704;2022-09-29T10:43:52;101027.44;;;25.02;64.58
250;BME280;109;19.806;-70.704;2022-09-29T10:46:37;101035.41;;;25.04;64.58
250;BME280;109;19.806;-70.704;2022-09-29T10:49:21;101031.78;;;25.05;64.25
250;BME280;109;19.806;-70.704;2022-09-29T10:52:05;101034.47;;;25.05;64.21
250;BME280;109;19.806;-70.704;2022-09-29T10:54:36;101032.59;;;25.07;64.14
250;BME280;109;19.806;-70.704;2022-09-29T10:57:24;101024.28;;;25.11;63.93
250;BME280;109;19.806;-70.704;2022-09-29T10:59:57;101021.09;;;25.05;64.35
250;BME280;109;19.806;-70.704;2022-09-29T11:02:40;101033.53;;;25.06;64.45
250;BME280;109;19.806;-70.704;2022-09-29T11:05:29;101027.38;;;25.04;63.96
250;BME280;109;19.806;-70.704;2022-09-29T11:08:02;101027.53;;;25.01;64.03
250;BME280;109;19.806;-70.704;2022-09-29T11:10:42;101028.19;;;25.06;64.08
250;BME280;109;19.806;-70.704;2022-09-29T11:16:03;101037.75;;;25.10;64.34
250;BME280;109;19.806;-70.704;2022-09-29T11:18:35;101030.59;;;25.28;63.89
250;BME280;109;19.806;-70.704;2022-09-29T11:26:57;101018.19;;;25.77;63.00
250;BME280;109;19.806;-70.704;2022-09-29T11:46:05;101022.72;;;26.72;60.31
250;BME280;109;19.806;-70.704;2022-09-29T11:54:39;101013.19;;;26.98;59.89
250;BME280;109;19.806;-70.704;2022-09-29T12:10:31;101028.56;;;27.40;58.81
250;BME280;109;19.806;-70.704;2022-09-29T12:13:30;101029.75;;;27.50;58.71
250;BME280;109;19.806;-70.704;2022-09-29T12:16:16;101033.59;;;27.61;58.63
250;BME280;109;19.806;-70.704;2022-09-29T12:19:02;101044.47;;;27.73;58.27
250;BME280;109;19.806;-70.704;2022-09-29T12:23:57;101038.44;;;28.12;57.89
250;BME280;109;19.806;-70.704;2022-09-29T12:26:25;101052.84;;;28.11;57.77
250;BME280;109;19.806;-70.704;2022-09-29T12:28:57;101040.94;;;28.15;57.28
250;BME280;109;19.806;-70.704;2022-09-29T12:31:38;101044.09;;;28.22;57.51
250;BME280;109;19.806;-70.704;2022-09-29T12:34:16;101041.59;;;28.33;57.00
250;BME280;109;19.806;-70.704;2022-09-29T12:37:04;101054.00;;;28.21;56.63
250;BME280;109;19.806;-70.704;2022-09-29T12:39:37;101051.41;;;28.20;56.81
250;BME280;109;19.806;-70.704;2022-09-29T12:50:39;101060.31;;;28.49;56.87
250;BME280;109;19.806;-70.704;2022-09-29T12:53:21;101061.75;;;28.40;56.38
250;BME280;109;19.806;-70.704;2022-09-29T12:56:04;101060.13;;;28.52;56.28
250;BME280;109;19.806;-70.704;2022-09-29T12:58:57;101062.69;;;28.68;55.83
250;BME280;109;19.806;-70.704;2022-09-29T13:01:34;101048.69;;;28.75;56.70
250;BME280;109;19.806;-70.704;2022-09-29T13:07:17;101061.00;;;28.79;55.87
250;BME280;109;19.806;-70.704;2022-09-29T13:13:02;101051.09;;;28.80;55.60
250;BME280;109;19.806;-70.704;2022-09-29T13:15:50;101058.56;;;28.89;55.71
250;BME280;109;19.806;-70.704;2022-09-29T13:18:52;101069.84;;;28.81;55.95
250;BME280;109;19.806;-70.704;2022-09-29T13:24:22;101053.31;;;28.46;56.47
250;BME280;109;19.806;-70.704;2022-09-29T13:27:18;101058.50;;;28.49;56.53
250;BME280;109;19.806;-70.704;2022-09-29T13:29:54;101058.31;;;28.79;56.44
250;BME280;109;19.806;-70.704;2022-09-29T13:32:22;101067.97;;;28.69;56.08
250;BME280;109;19.806;-70.704;2022-09-29T13:34:57;101071.38;;;28.85;55.63
250;BME280;109;19.806;-70.704;2022-09-29T13:37:49;101063.84;;;28.90;56.13
250;BME280;109;19.806;-70.704;2022-09-29T13:40:33;101073.63;;;29.06;55.75
250;BME280;109;19.806;-70.704;2022-09-29T13:43:02;101075.59;;;29.16;55.54
250;BME280;109;19.806;-70.704;2022-09-29T13:48:32;101076.81;;;29.12;55.92
250;BME280;109;19.806;-70.704;2022-09-29T13:50:52;101067.13;;;29.35;55.70
250;BME280;109;19.806;-70.704;2022-09-29T13:56:09;101067.56;;;29.42;55.87
250;BME280;109;19.806;-70.704;2022-09-29T14:01:11;101073.72;;;29.44;56.08
250;BME280;109;19.806;-70.704;2022-09-29T14:03:42;101076.94;;;29.23;56.17
250;BME280;109;19.806;-70.704;2022-09-29T14:06:23;101072.78;;;29.05;57.18
250;BME280;109;19.806;-70.704;2022-09-29T14:09:00;101080.13;;;29.16;57.16
250;BME280;109;19.806;-70.704;2022-09-29T14:11:38;101069.13;;;29.06;56.96
250;BME280;109;19.806;-70.704;2022-09-29T14:14:27;101078.94;;;29.07;58.35
250;BME280;109;19.806;-70.704;2022-09-29T14:19:53;101076.97;;;28.82;58.66
250;BME280;109;19.806;-70.704;2022-09-29T14:27:56;101071.94;;;28.49;59.09
250;BME280;109;19.806;-70.704;2022-09-29T14:33:07;101071.63;;;28.68;57.89
250;BME280;109;19.806;-70.704;2022-09-29T14:35:40;101075.13;;;28.97;57.08
250;BME280;109;19.806;-70.704;2022-09-29T14:38:21;101065.38;;;28.94;56.74
250;BME280;109;19.806;-70.704;2022-09-29T14:40:57;101065.09;;;28.72;56.25
250;BME280;109;19.806;-70.704;2022-09-29T14:43:41;101058.59;;;28.75;56.41
250;BME280;109;19.806;-70.704;2022-09-29T14:49:50;101054.84;;;28.77;56.87
250;BME280;109;19.806;-70.704;2022-09-29T15:03:46;101049.94;;;29.11;56.73
250;BME280;109;19.806;-70.704;2022-09-29T15:06:20;101051.97;;;29.07;56.66
250;BME280;109;19.806;-70.704;2022-09-29T15:09:20;101053.59;;;28.83;56.98
250;BME280;109;19.806;-70.704;2022-09-29T15:14:36;101050.59;;;29.14;56.76
250;BME280;109;19.806;-70.704;2022-09-29T15:17:41;101050.38;;;28.90;56.29
250;BME280;109;19.806;-70.704;2022-09-29T15:23:18;101051.25;;;29.18;56.19
250;BME280;109;19.806;-70.704;2022-09-29T15:25:53;101053.53;;;29.24;56.21
250;BME280;109;19.806;-70.704;2022-09-29T15:28:24;101055.59;;;29.33;55.94
250;BME280;109;19.806;-70.704;2022-09-29T15:31:01;101059.09;;;29.48;55.63
250;BME280;109;19.806;-70.704;2022-09-29T15:33:38;101058.56;;;29.55;55.44
250;BME280;109;19.806;-70.704;2022-09-29T15:36:23;101052.63;;;29.50;55.28
250;BME280;109;19.806;-70.704;2022-09-29T15:39:05;101043.59;;;29.64;55.41
250;BME280;109;19.806;-70.704;2022-09-29T15:41:34;101049.59;;;29.67;54.85
250;BME280;109;19.806;-70.704;2022-09-29T15:44:07;101038.41;;;29.61;55.38
250;BME280;109;19.806;-70.704;2022-09-29T15:46:39;101027.59;;;29.74;54.76
250;BME280;109;19.806;-70.704;2022-09-29T15:49:21;101028.00;;;29.80;54.55
250;BME280;109;19.806;-70.704;2022-09-29T15:51:59;101028.88;;;29.68;54.85
250;BME280;109;19.806;-70.704;2022-09-29T15:54:32;101029.34;;;29.49;55.08
250;BME280;109;19.806;-70.704;2022-09-29T15:57:00;101024.69;;;29.64;55.09
250;BME280;109;19.806;-70.704;2022-09-29T15:59:46;101016.63;;;29.64;54.42
250;BME280;109;19.806;-70.704;2022-09-29T16:02:24;101010.66;;;29.59;54.88
250;BME280;109;19.806;-70.704;2022-09-29T16:04:54;100997.38;;;29.69;54.62
250;BME280;109;19.806;-70.704;2022-09-29T16:07:25;100992.63;;;29.72;55.77
250;BME280;109;19.806;-70.704;2022-09-29T16:10:05;100995.22;;;29.74;55.40
250;BME280;109;19.806;-70.704;2022-09-29T16:12:37;100997.81;;;29.88;54.87
250;BME280;109;19.806;-70.704;2022-09-29T16:15:05;101001.00;;;29.93;55.31
250;BME280;109;19.806;-70.704;2022-09-29T16:17:32;100999.84;;;29.84;54.92
250;BME280;109;19.806;-70.704;2022-09-29T16:19:59;100995.25;;;29.61;54.36
250;BME280;109;19.806;-70.704;2022-09-29T16:22:26;100983.47;;;29.62;55.38
250;BME280;109;19.806;-70.704;2022-09-29T16:27:52;100973.22;;;29.54;56.23
250;BME280;109;19.806;-70.704;2022-09-29T16:30:22;100965.66;;;29.34;56.67
250;BME280;109;19.806;-70.704;2022-09-29T16:32:54;100955.53;;;29.38;56.23
250;BME280;109;19.806;-70.704;2022-09-29T16:39:05;100937.94;;;29.45;56.27
250;BME280;109;19.806;-70.704;2022-09-29T16:41:30;100934.59;;;29.54;55.81
250;BME280;109;19.806;-70.704;2022-09-29T16:46:47;100932.63;;;29.69;55.65
250;BME280;109;19.806;-70.704;2022-09-29T16:49:18;100924.38;;;29.46;56.39
250;BME280;109;19.806;-70.704;2022-09-29T16:51:47;100916.38;;;29.32;56.55
250;BME280;109;19.806;-70.704;2022-09-29T16:54:25;100911.09;;;29.56;56.88
250;BME280;109;19.806;-70.704;2022-09-29T16:57:26;100906.03;;;29.51;56.34
250;BME280;109;19.806;-70.704;2022-09-29T16:59:57;100901.59;;;29.38;56.31
250;BME280;109;19.806;-70.704;2022-09-29T17:02:25;100896.94;;;29.52;56.54
250;BME280;109;19.806;-70.704;2022-09-29T17:04:53;100890.19;;;29.47;56.46